Terminal Aerodrome Forecast
Issued by NWS Indianapolis, IN

Home | Current Version | Previous Version | Text Only | Print | Product List | Glossary On
Versions: 1 2 3 4 5 6 7 8 9 10 11 12 13 14 15 16 17 18 19 20 21 22 23 24 25 26
149
FTUS43 KIND 280822 AAB
TAFIND
TAF AMD
KIND 280822Z 2808/2912 01009KT 6SM BR BKN008 OVC015
     FM281600 35007KT P6SM SCT008 BKN012
     FM282200 02007KT P6SM BKN015
     FM290400 05006KT P6SM BKN015
     FM291000 06006KT P6SM BKN020=

USA.gov is the U.S. government's official web portal to all federal, state and local government web resources and services.